createdAt,value
2019-05-25T00:01:15.890Z,1.60
2019-05-25T00:03:44.387Z,1.47
2019-05-25T00:06:13.086Z,1.30
2019-05-25T00:08:41.615Z,1.45
2019-05-25T00:11:10.257Z,1.40
2019-05-25T00:13:38.732Z,1.50
2019-05-25T00:16:07.342Z,1.55
2019-05-25T00:18:35.850Z,1.10
2019-05-25T00:21:04.364Z,1.70
2019-05-25T00:23:32.874Z,1.30
2019-05-25T00:26:01.359Z,1.65
2019-05-25T00:28:29.895Z,1.37
2019-05-25T00:30:58.358Z,1.40
2019-05-25T00:33:26.826Z,1.40
2019-05-25T00:35:55.382Z,1.55
2019-05-25T00:38:23.885Z,1.60
2019-05-25T00:40:52.354Z,1.40
2019-05-25T00:43:20.880Z,1.32
2019-05-25T00:45:49.371Z,1.30
2019-05-25T00:48:17.904Z,1.40
2019-05-25T00:50:46.359Z,1.30
2019-05-25T00:53:14.875Z,1.30
2019-05-25T00:55:43.377Z,1.20
2019-05-25T00:58:11.829Z,1.37
2019-05-25T01:00:40.863Z,1.40
2019-05-25T01:03:09.326Z,1.40
2019-05-25T01:05:37.932Z,1.40
2019-05-25T01:08:06.492Z,1.60
2019-05-25T01:10:35.016Z,1.30
2019-05-25T01:13:03.479Z,1.55
2019-05-25T01:15:31.961Z,1.50
2019-05-25T01:18:00.422Z,1.42
2019-05-25T01:20:28.899Z,1.50
2019-05-25T01:22:57.452Z,1.50
2019-05-25T01:25:25.918Z,1.47
2019-05-25T01:27:54.399Z,1.42
2019-05-25T01:30:23.934Z,1.45
2019-05-25T01:32:52.398Z,1.50
2019-05-25T01:35:20.850Z,1.62
2019-05-25T01:37:49.313Z,1.40
2019-05-25T01:40:18.200Z,1.37
2019-05-25T01:42:46.779Z,1.82
2019-05-25T01:45:15.433Z,1.47
2019-05-25T01:47:43.887Z,1.40
2019-05-25T01:50:12.813Z,1.42
2019-05-25T01:52:41.256Z,1.55
2019-05-25T01:55:09.790Z,1.40
2019-05-25T01:57:38.279Z,1.40
2019-05-25T02:00:07.943Z,1.55
2019-05-25T02:02:36.475Z,1.62
2019-05-25T02:05:06.906Z,1.50
2019-05-25T02:07:35.434Z,1.60
2019-05-25T02:10:07.219Z,1.60
2019-05-25T02:12:36.148Z,1.80
2019-05-25T02:15:09.235Z,1.65
2019-05-25T02:17:37.702Z,1.82
2019-05-25T02:20:09.012Z,1.45
2019-05-25T02:22:37.503Z,1.87
2019-05-25T02:25:17.012Z,1.50
2019-05-25T02:27:37.164Z,1.90
2019-05-25T02:30:07.613Z,1.95
2019-05-25T02:32:36.161Z,1.80
2019-05-25T02:35:06.403Z,1.72
2019-05-25T02:37:34.879Z,1.80
2019-05-25T02:40:05.389Z,1.75
2019-05-25T02:42:33.922Z,1.80
2019-05-25T02:45:02.479Z,1.70
2019-05-25T02:47:30.925Z,1.62
2019-05-25T02:49:59.400Z,1.70
2019-05-25T02:52:27.881Z,1.77
2019-05-25T02:54:56.342Z,2.02
2019-05-25T02:57:24.815Z,1.70
2019-05-25T02:59:53.317Z,1.92
2019-05-25T03:02:21.947Z,1.90
2019-05-25T03:04:50.554Z,1.90
2019-05-25T03:07:20.904Z,2.05
2019-05-25T03:09:51.311Z,1.98
2019-05-25T03:12:20.104Z,2.17
2019-05-25T03:14:48.659Z,2.12
2019-05-25T03:17:17.110Z,2.25
2019-05-25T03:19:45.573Z,2.27
2019-05-25T03:22:14.071Z,2.10
2019-05-25T03:24:42.526Z,1.90
2019-05-25T03:27:11.069Z,2.20
2019-05-25T03:29:39.551Z,2.20
2019-05-25T03:32:08.073Z,2.05
2019-05-25T03:34:36.541Z,2.22
2019-05-25T03:37:05.029Z,2.30
2019-05-25T03:39:33.490Z,2.62
2019-05-25T03:42:02.037Z,2.83
2019-05-25T03:44:30.522Z,2.72
2019-05-25T03:46:58.983Z,2.92
2019-05-25T03:49:27.436Z,3.30
2019-05-25T03:51:55.968Z,3.20
2019-05-25T03:54:24.426Z,3.15
2019-05-25T03:56:52.876Z,3.10
2019-05-25T03:59:21.358Z,3.35
2019-05-25T04:01:49.810Z,3.80
2019-05-25T04:04:18.277Z,3.50
2019-05-25T04:06:46.757Z,4.03
2019-05-25T04:09:15.216Z,4.33
2019-05-25T04:11:45.525Z,4.17
2019-05-25T04:14:14.027Z,4.33
2019-05-25T04:16:42.496Z,4.67
2019-05-25T04:19:10.972Z,4.30
2019-05-25T04:21:39.439Z,4.53
2019-05-25T04:24:10.981Z,5.00
2019-05-25T04:26:39.445Z,4.92
2019-05-25T04:29:07.910Z,5.20
2019-05-25T04:31:36.371Z,4.80
2019-05-25T04:34:04.921Z,5.03
2019-05-25T04:36:33.390Z,5.20
2019-05-25T04:39:01.909Z,5.22
2019-05-25T04:41:30.383Z,4.87
2019-05-25T04:43:58.901Z,5.00
2019-05-25T04:46:27.387Z,4.92
2019-05-25T04:48:55.848Z,5.17
2019-05-25T04:51:24.310Z,5.33
2019-05-25T04:53:52.759Z,4.97
2019-05-25T04:56:37.872Z,5.70
2019-05-25T04:58:51.435Z,5.60
2019-05-25T05:01:22.449Z,6.30
2019-05-25T05:03:50.083Z,6.53
2019-05-25T05:06:18.630Z,6.65
2019-05-25T05:08:47.081Z,6.58
2019-05-25T05:11:15.636Z,6.87
2019-05-25T05:13:44.088Z,6.62
2019-05-25T05:16:12.562Z,7.30
2019-05-25T05:18:41.110Z,7.30
2019-05-25T05:21:09.577Z,7.50
2019-05-25T05:23:38.116Z,7.72
2019-05-25T05:26:06.672Z,7.70
2019-05-25T05:28:35.151Z,8.20
2019-05-25T05:31:03.761Z,8.70
2019-05-25T05:33:32.378Z,8.30
2019-05-25T05:36:02.186Z,9.25
2019-05-25T05:38:30.900Z,9.30
2019-05-25T05:41:00.269Z,9.28
2019-05-25T05:43:29.723Z,8.73
2019-05-25T05:46:00.267Z,8.80
2019-05-25T05:48:29.789Z,8.38
2019-05-25T05:51:00.395Z,8.98
2019-05-25T05:53:28.867Z,9.15
2019-05-25T05:55:57.407Z,9.45
2019-05-25T05:58:25.904Z,10.10
2019-05-25T06:00:54.367Z,9.90
2019-05-25T06:03:22.835Z,9.88
2019-05-25T06:05:51.324Z,10.23
2019-05-25T06:08:19.820Z,10.38
2019-05-25T06:10:48.373Z,10.30
2019-05-25T06:13:16.840Z,10.40
2019-05-25T06:15:45.322Z,11.57
2019-05-25T06:18:13.821Z,11.20
2019-05-25T06:20:42.285Z,11.40
2019-05-25T06:23:12.549Z,12.35
2019-05-25T06:25:40.969Z,12.43
2019-05-25T06:28:09.515Z,12.63
2019-05-25T06:30:38.261Z,13.68
2019-05-25T06:33:06.768Z,13.22
2019-05-25T06:35:35.275Z,13.03
2019-05-25T06:38:04.223Z,14.07
2019-05-25T06:40:32.774Z,13.78
2019-05-25T06:43:01.254Z,13.50
2019-05-25T06:45:29.720Z,13.43
2019-05-25T06:47:58.233Z,14.60
2019-05-25T06:50:26.822Z,14.25
2019-05-25T06:52:57.821Z,15.15
2019-05-25T06:55:25.591Z,14.45
2019-05-25T06:57:54.082Z,15.98
2019-05-25T07:00:22.764Z,15.78
2019-05-25T07:02:51.261Z,15.65
2019-05-25T07:05:19.936Z,17.30
2019-05-25T07:07:48.546Z,15.88
2019-05-25T07:10:18.147Z,17.30
2019-05-25T07:12:46.633Z,16.42
2019-05-25T07:15:15.542Z,16.65
2019-05-25T07:17:44.186Z,16.25
2019-05-25T07:20:13.103Z,15.90
2019-05-25T07:22:41.728Z,16.70
2019-05-25T07:25:10.850Z,16.17
2019-05-25T07:27:39.336Z,16.73
2019-05-25T07:30:08.253Z,16.85
2019-05-25T07:32:36.881Z,16.85
2019-05-25T07:35:07.066Z,17.50
2019-05-25T07:37:35.621Z,17.32
2019-05-25T07:40:07.228Z,16.37
2019-05-25T07:42:35.754Z,16.17
2019-05-25T07:45:07.452Z,16.85
2019-05-25T07:47:36.083Z,16.07
2019-05-25T07:50:08.366Z,16.37
2019-05-25T07:52:36.903Z,16.45
2019-05-25T07:55:08.767Z,15.43
2019-05-25T07:57:37.304Z,15.95
2019-05-25T08:00:09.313Z,16.07
2019-05-25T08:02:37.861Z,15.53
2019-05-25T08:05:09.363Z,15.32
2019-05-25T08:07:37.921Z,15.70
2019-05-25T08:10:06.975Z,16.00
2019-05-25T08:12:35.512Z,14.87
2019-05-25T08:15:05.992Z,15.63
2019-05-25T08:17:34.583Z,15.63
2019-05-25T08:20:04.176Z,15.15
2019-05-25T08:22:32.660Z,15.43
2019-05-25T08:25:01.234Z,15.20
2019-05-25T08:27:29.791Z,14.13
2019-05-25T08:29:58.260Z,14.60
2019-05-25T08:32:26.764Z,13.38
2019-05-25T08:34:55.316Z,12.82
2019-05-25T08:37:23.841Z,13.00
2019-05-25T08:39:52.606Z,12.98
2019-05-25T08:42:21.072Z,12.95
2019-05-25T08:44:49.648Z,12.75
2019-05-25T08:47:19.581Z,12.53
2019-05-25T08:49:48.041Z,11.97
2019-05-25T08:52:16.574Z,11.40
2019-05-25T08:54:45.057Z,12.00
2019-05-25T08:57:17.774Z,11.75
2019-05-25T08:59:43.727Z,11.78
2019-05-25T09:02:12.235Z,11.38
2019-05-25T09:04:40.783Z,11.30
2019-05-25T09:07:09.324Z,10.90
2019-05-25T09:09:37.815Z,11.88
2019-05-25T09:12:06.407Z,12.33
2019-05-25T09:14:34.891Z,10.10
2019-05-25T09:17:03.438Z,9.75
2019-05-25T09:19:31.983Z,9.58
2019-05-25T09:22:03.035Z,9.00
2019-05-25T09:24:30.649Z,8.63
2019-05-25T09:26:59.656Z,8.20
2019-05-25T09:29:29.219Z,7.35
2019-05-25T09:31:57.702Z,7.15
2019-05-25T09:34:26.180Z,7.92
2019-05-25T09:36:54.660Z,7.67
2019-05-25T09:39:23.153Z,6.92
2019-05-25T09:41:51.661Z,7.37
2019-05-25T09:44:32.828Z,6.83
2019-05-25T09:47:01.277Z,7.00
2019-05-25T09:49:29.733Z,5.95
2019-05-25T09:51:58.201Z,6.78
2019-05-25T09:54:26.733Z,6.45
2019-05-25T09:56:55.208Z,6.40
2019-05-25T09:59:23.689Z,6.03
2019-05-25T10:01:52.224Z,5.58
2019-05-25T10:04:20.686Z,4.90
2019-05-25T10:06:49.155Z,3.62
2019-05-25T10:09:17.614Z,3.67
2019-05-25T10:11:46.100Z,3.60
2019-05-25T10:14:14.563Z,3.40
2019-05-25T10:16:43.148Z,3.80
2019-05-25T10:19:11.769Z,3.70
2019-05-25T10:21:40.576Z,3.62
2019-05-25T10:24:09.245Z,3.17
2019-05-25T10:26:37.812Z,3.70
2019-05-25T10:29:06.356Z,2.90
2019-05-25T10:31:34.876Z,3.90
2019-05-25T10:34:03.366Z,3.12
2019-05-25T10:36:31.835Z,2.75
2019-05-25T10:39:00.351Z,2.58
2019-05-25T10:41:28.831Z,2.50
2019-05-25T10:43:57.301Z,2.60
2019-05-25T10:46:25.775Z,2.17
2019-05-25T10:48:54.398Z,2.70
2019-05-25T10:51:22.899Z,2.17
2019-05-25T10:53:51.385Z,2.35
2019-05-25T10:56:19.910Z,2.42
2019-05-25T10:58:48.390Z,1.90
2019-05-25T11:01:16.918Z,2.20
2019-05-25T11:03:45.381Z,2.02
2019-05-25T11:06:13.951Z,2.10
2019-05-25T11:08:42.471Z,2.22
2019-05-25T11:11:10.946Z,2.37
2019-05-25T11:13:39.668Z,2.17
2019-05-25T11:16:08.159Z,2.50
2019-05-25T11:18:36.793Z,2.33
2019-05-25T11:21:05.351Z,2.00
2019-05-25T11:23:33.804Z,2.20
2019-05-25T11:26:02.350Z,2.00
2019-05-25T11:28:30.918Z,2.12
2019-05-25T11:30:59.400Z,2.00
2019-05-25T11:33:27.921Z,2.00
2019-05-25T11:35:56.465Z,2.00
2019-05-25T11:38:24.962Z,2.20
2019-05-25T11:40:53.417Z,1.95
2019-05-25T11:43:21.907Z,1.98
2019-05-25T11:45:50.375Z,2.27
2019-05-25T11:48:18.906Z,2.30
2019-05-25T11:50:47.411Z,2.60
2019-05-25T11:53:15.937Z,2.10
2019-05-25T11:55:44.393Z,2.27
2019-05-25T11:58:12.883Z,2.17
2019-05-25T12:00:41.486Z,2.00
2019-05-25T12:03:09.988Z,2.10
2019-05-25T12:05:38.508Z,1.90
2019-05-25T12:08:07.030Z,1.80
2019-05-25T12:10:35.615Z,1.70
2019-05-25T12:13:04.092Z,1.42
2019-05-25T12:15:32.658Z,1.40
2019-05-25T12:18:01.139Z,1.90
2019-05-25T12:20:29.644Z,1.60
2019-05-25T12:22:58.137Z,1.40
2019-05-25T12:25:26.656Z,1.50
2019-05-25T12:27:55.155Z,2.00
2019-05-25T12:30:37.889Z,1.50
2019-05-25T12:32:54.153Z,1.65
2019-05-25T12:35:22.702Z,1.42
2019-05-25T12:37:51.198Z,1.25
2019-05-25T12:40:19.994Z,1.00
2019-05-25T12:42:48.643Z,1.00
2019-05-25T12:45:17.237Z,1.42
2019-05-25T12:47:45.722Z,2.02
2019-05-25T12:50:15.006Z,1.70
2019-05-25T12:52:43.475Z,1.37
2019-05-25T12:55:12.080Z,1.20
2019-05-25T12:57:40.545Z,1.05
2019-05-25T13:00:16.099Z,1.20
2019-05-25T13:02:40.012Z,1.30
2019-05-25T13:05:08.997Z,1.50
2019-05-25T13:07:37.446Z,1.37
2019-05-25T13:10:09.535Z,1.17
2019-05-25T13:12:38.076Z,1.47
2019-05-25T13:15:10.504Z,0.98
2019-05-25T13:17:38.969Z,1.20
2019-05-25T13:20:07.666Z,1.10
2019-05-25T13:22:36.162Z,1.10
2019-05-25T13:25:06.361Z,1.50
2019-05-25T13:27:34.965Z,1.50
2019-05-25T13:30:04.989Z,1.40
2019-05-25T13:32:33.487Z,1.20
2019-05-25T13:35:02.022Z,0.85
2019-05-25T13:37:30.491Z,0.90
2019-05-25T13:39:59.020Z,1.30
2019-05-25T13:42:27.486Z,1.10
2019-05-25T13:44:55.948Z,1.77
2019-05-25T13:47:24.470Z,1.30
2019-05-25T13:49:53.042Z,1.20
2019-05-25T13:52:21.523Z,1.17
2019-05-25T13:54:50.004Z,1.30
2019-05-25T13:57:18.562Z,1.20
2019-05-25T13:59:47.044Z,1.20
2019-05-25T14:02:15.537Z,1.40
2019-05-25T14:04:44.064Z,1.47
2019-05-25T14:07:12.545Z,12.45
2019-05-25T14:09:41.015Z,1.80
2019-05-25T14:12:09.483Z,5.10
2019-05-25T14:14:38.024Z,24.80
2019-05-25T14:17:06.492Z,21.70
2019-05-25T14:19:34.960Z,13.38
2019-05-25T14:22:03.439Z,1.35
2019-05-25T14:24:31.909Z,2.52
2019-05-25T14:27:00.648Z,8.93
2019-05-25T14:29:29.110Z,1.65
2019-05-25T14:31:57.572Z,4.30
2019-05-25T14:34:26.038Z,11.95
2019-05-25T14:36:54.520Z,7.12
2019-05-25T14:39:22.987Z,1.92
2019-05-25T14:41:51.532Z,1.87
2019-05-25T14:44:20.056Z,1.40
2019-05-25T14:46:48.507Z,1.52
2019-05-25T14:49:16.975Z,1.32
2019-05-25T14:51:45.596Z,1.42
2019-05-25T14:54:14.057Z,1.50
2019-05-25T14:56:42.524Z,1.00
2019-05-25T14:59:10.993Z,1.30
2019-05-25T15:01:39.452Z,1.00
2019-05-25T15:04:07.912Z,1.10
2019-05-25T15:06:36.386Z,1.25
2019-05-25T15:09:07.084Z,1.10
2019-05-25T15:11:35.569Z,1.10
2019-05-25T15:14:04.212Z,1.10
2019-05-25T15:16:32.674Z,1.20
2019-05-25T15:19:01.147Z,1.20
2019-05-25T15:21:29.770Z,1.12
2019-05-25T15:23:58.271Z,1.20
2019-05-25T15:26:26.809Z,1.10
2019-05-25T15:28:55.340Z,1.50
2019-05-25T15:31:23.796Z,1.30
2019-05-25T15:33:52.263Z,1.30
2019-05-25T15:36:20.744Z,1.30
2019-05-25T15:38:49.199Z,1.10
2019-05-25T15:41:17.660Z,1.10
2019-05-25T15:43:46.161Z,1.12
2019-05-25T15:46:14.608Z,1.12
2019-05-25T15:48:43.145Z,1.50
2019-05-25T15:51:11.621Z,1.30
2019-05-25T15:53:40.090Z,1.40
2019-05-25T15:56:09.543Z,1.52
2019-05-25T15:58:38.119Z,1.20
2019-05-25T16:01:06.723Z,1.40
2019-05-25T16:03:35.268Z,1.20
2019-05-25T16:06:03.844Z,1.20
2019-05-25T16:08:32.438Z,1.20
2019-05-25T16:11:00.975Z,1.20
2019-05-25T16:13:29.424Z,1.25
2019-05-25T16:15:57.906Z,1.00
2019-05-25T16:18:26.356Z,1.12
2019-05-25T16:20:54.888Z,1.15
2019-05-25T16:23:23.372Z,1.30
2019-05-25T16:25:51.840Z,1.05
2019-05-25T16:28:20.299Z,1.00
2019-05-25T16:30:48.846Z,0.98
2019-05-25T16:33:17.364Z,1.00
2019-05-25T16:35:45.843Z,1.10
2019-05-25T16:38:14.456Z,1.30
2019-05-25T16:40:42.910Z,1.50
2019-05-25T16:43:11.523Z,2.10
2019-05-25T16:45:39.998Z,1.70
2019-05-25T16:48:08.544Z,2.92
2019-05-25T16:50:37.086Z,1.50
2019-05-25T16:53:05.571Z,1.40
2019-05-25T16:55:34.034Z,1.42
2019-05-25T16:58:02.497Z,2.10
2019-05-25T17:00:31.222Z,1.30
2019-05-25T17:02:59.860Z,1.62
2019-05-25T17:05:28.980Z,1.10
2019-05-25T17:07:57.977Z,1.00
2019-05-25T17:10:26.691Z,1.07
2019-05-25T17:12:55.290Z,1.40
2019-05-25T17:15:23.901Z,1.55
2019-05-25T17:17:52.439Z,1.30
2019-05-25T17:20:21.997Z,1.60
2019-05-25T17:22:50.615Z,1.65
2019-05-25T17:25:19.299Z,1.60
2019-05-25T17:27:47.947Z,1.80
2019-05-25T17:30:17.172Z,1.40
2019-05-25T17:32:45.737Z,1.60
2019-05-25T17:35:14.603Z,2.20
2019-05-25T17:37:43.086Z,1.72
2019-05-25T17:40:12.106Z,1.70
2019-05-25T17:42:40.637Z,1.80
2019-05-25T17:45:09.443Z,1.62
2019-05-25T17:47:37.905Z,1.20
2019-05-25T17:50:07.502Z,1.50
2019-05-25T17:52:35.999Z,1.80
2019-05-25T17:55:07.527Z,2.05
2019-05-25T17:57:36.056Z,1.50
2019-05-25T18:00:07.302Z,1.90
2019-05-25T18:02:35.775Z,1.60
2019-05-25T18:05:06.678Z,2.10
2019-05-25T18:07:35.241Z,1.70
2019-05-25T18:10:06.199Z,1.70
2019-05-25T18:12:34.658Z,1.37
2019-05-25T18:15:04.419Z,1.80
2019-05-25T18:17:32.878Z,1.70
2019-05-25T18:20:01.345Z,1.80
2019-05-25T18:22:29.838Z,2.00
2019-05-25T18:24:58.301Z,1.60
2019-05-25T18:27:26.835Z,1.77
2019-05-25T18:29:55.387Z,1.90
2019-05-25T18:32:23.846Z,1.95
2019-05-25T18:34:52.295Z,1.60
2019-05-25T18:37:20.833Z,1.70
2019-05-25T18:39:49.369Z,1.50
2019-05-25T18:42:17.838Z,1.40
2019-05-25T18:44:46.326Z,1.60
2019-05-25T18:47:14.786Z,1.72
2019-05-25T18:49:43.236Z,1.80
2019-05-25T18:52:11.720Z,2.17
2019-05-25T18:54:40.169Z,1.85
2019-05-25T18:57:09.623Z,1.72
2019-05-25T18:59:38.395Z,1.70
2019-05-25T19:02:06.862Z,2.85
2019-05-25T19:04:44.737Z,2.83
2019-05-25T19:07:05.534Z,3.45
2019-05-25T19:09:34.000Z,5.90
2019-05-25T19:12:02.448Z,5.33
2019-05-25T19:14:30.939Z,3.40
2019-05-25T19:16:59.402Z,2.50
2019-05-25T19:19:27.865Z,2.47
2019-05-25T19:21:56.525Z,2.60
2019-05-25T19:24:25.059Z,5.67
2019-05-25T19:26:56.443Z,3.47
2019-05-25T19:29:24.997Z,10.45
2019-05-25T19:31:53.461Z,4.42
2019-05-25T19:34:21.905Z,3.12
2019-05-25T19:36:50.389Z,2.77
2019-05-25T19:39:18.844Z,4.58
2019-05-25T19:41:47.322Z,5.25
2019-05-25T19:44:15.863Z,5.47
2019-05-25T19:46:44.318Z,7.10
2019-05-25T19:49:12.776Z,13.28
2019-05-25T19:51:41.312Z,4.87
2019-05-25T19:54:09.820Z,12.25
2019-05-25T19:56:38.343Z,9.15
2019-05-25T19:59:06.819Z,17.57
2019-05-25T20:01:35.348Z,9.95
2019-05-25T20:04:03.823Z,8.33
2019-05-25T20:06:32.315Z,25.00
2019-05-25T20:09:00.777Z,13.68
2019-05-25T20:11:29.249Z,23.83
2019-05-25T20:13:57.723Z,15.00
2019-05-25T20:16:26.179Z,15.10
2019-05-25T20:18:54.635Z,18.35
2019-05-25T20:21:23.130Z,10.03
2019-05-25T20:23:51.612Z,28.15
2019-05-25T20:26:20.090Z,16.45
2019-05-25T20:28:50.830Z,21.73
2019-05-25T20:31:19.626Z,9.80
2019-05-25T20:33:48.085Z,10.25
2019-05-25T20:36:16.569Z,10.88
2019-05-25T20:38:45.025Z,5.60
2019-05-25T20:41:13.495Z,3.02
2019-05-25T20:43:41.955Z,3.22
2019-05-25T20:46:10.422Z,3.60
2019-05-25T20:48:38.948Z,2.87
2019-05-25T20:51:07.491Z,2.87
2019-05-25T20:53:35.954Z,3.17
2019-05-25T20:56:04.464Z,2.80
2019-05-25T20:58:32.951Z,3.22
2019-05-25T21:01:01.683Z,2.72
2019-05-25T21:03:30.147Z,3.15
2019-05-25T21:05:58.630Z,3.42
2019-05-25T21:08:27.158Z,3.20
2019-05-25T21:10:55.614Z,3.52
2019-05-25T21:13:24.099Z,3.33
2019-05-25T21:15:52.565Z,3.70
2019-05-25T21:18:21.019Z,3.55
2019-05-25T21:20:49.509Z,3.67
2019-05-25T21:23:17.951Z,3.50
2019-05-25T21:25:46.591Z,3.52
2019-05-25T21:28:15.064Z,3.75
2019-05-25T21:30:43.526Z,3.55
2019-05-25T21:33:11.982Z,3.60
2019-05-25T21:35:40.455Z,3.72
2019-05-25T21:38:08.985Z,3.70
2019-05-25T21:40:38.642Z,3.60
2019-05-25T21:43:07.106Z,4.15
2019-05-25T21:45:35.558Z,4.20
2019-05-25T21:48:04.151Z,4.08
2019-05-25T21:50:32.664Z,3.70
2019-05-25T21:53:01.122Z,3.75
2019-05-25T21:55:29.591Z,3.77
2019-05-25T21:57:58.147Z,3.70
2019-05-25T22:00:29.680Z,3.72
2019-05-25T22:02:58.227Z,3.92
2019-05-25T22:05:30.423Z,3.83
2019-05-25T22:07:56.865Z,4.40
2019-05-25T22:10:25.428Z,3.85
2019-05-25T22:12:53.999Z,3.70
2019-05-25T22:15:22.462Z,3.50
2019-05-25T22:17:50.964Z,3.62
2019-05-25T22:20:19.564Z,3.58
2019-05-25T22:22:48.031Z,3.83
2019-05-25T22:25:16.653Z,3.60
2019-05-25T22:27:45.274Z,3.47
2019-05-25T22:30:14.211Z,3.80
2019-05-25T22:32:42.683Z,3.70
2019-05-25T22:35:11.597Z,3.70
2019-05-25T22:37:40.261Z,3.83
2019-05-25T22:40:09.099Z,3.77
2019-05-25T22:42:37.554Z,4.03
2019-05-25T22:45:10.613Z,3.35
2019-05-25T22:47:39.080Z,3.40
2019-05-25T22:50:09.065Z,3.25
2019-05-25T22:52:37.621Z,3.27
2019-05-25T22:55:07.269Z,3.00
2019-05-25T22:57:35.715Z,3.77
2019-05-25T23:00:09.198Z,3.55
2019-05-25T23:02:37.778Z,3.47
2019-05-25T23:05:10.500Z,2.90
2019-05-25T23:07:39.106Z,3.25
2019-05-25T23:10:08.919Z,3.33
2019-05-25T23:12:37.459Z,3.27
2019-05-25T23:15:09.366Z,3.15
2019-05-25T23:17:38.133Z,3.05
2019-05-25T23:20:10.097Z,3.10
2019-05-25T23:22:38.699Z,3.02
2019-05-25T23:25:07.481Z,2.98
2019-05-25T23:27:35.947Z,2.85
2019-05-25T23:30:06.140Z,3.08
2019-05-25T23:32:35.276Z,3.12
2019-05-25T23:35:04.411Z,3.37
2019-05-25T23:37:32.870Z,3.00
2019-05-25T23:40:01.443Z,2.98
2019-05-25T23:42:30.028Z,2.92
2019-05-25T23:44:58.517Z,2.90
2019-05-25T23:47:27.100Z,3.05
2019-05-25T23:49:58.853Z,3.10
2019-05-25T23:52:25.739Z,2.85
2019-05-25T23:54:54.295Z,2.70
2019-05-25T23:57:22.745Z,2.87
